Time;durP1;ratioP1;P1;durP2;ratioP2;P2;SDS_P1;SDS_P2;PMS_P1;PMS_P2;Temp;Humidity;BMP_temperature;BMP_pressure;BME280_temperature;BME280_humidity;BME280_pressure;Samples;Min_cycle;Max_cycle;Signal;HPM_P1;HPM_P2
2023/08/18 00:02:15;;;;;;;;;;;;;;;;;;5106653;28;1144;-60
2023/08/18 00:04:40;;;;;;;;;;;;;;;;;;5099194;28;4975;-58
2023/08/18 00:07:06;;;;;;;;;;;;;;;;;;5097759;28;4610;-66
2023/08/18 00:09:31;;;;;;;;;;;;;;;;;;5097411;28;5162;-60
2023/08/18 00:11:56;;;;;;;;;;;;;;;;;;5077506;28;5099;-61
2023/08/18 00:14:21;;;;;;;;;;;;;;;;;;5102676;28;1752;-58
2023/08/18 00:16:47;;;;;;;;;;;;;;;;;;5094948;28;4870;-58
2023/08/18 00:19:12;;;;;;;;;;;;;;;;;;5094399;28;4857;-59
2023/08/18 00:21:37;;;;;;;;;;;;;;;;;;5092556;28;5301;-59
2023/08/18 00:24:03;;;;;;;;;;;;;;;;;;5100673;28;5073;-59
2023/08/18 00:26:28;;;;;;;;;;;;;;;;;;5093895;28;1909;-59
2023/08/18 00:28:53;;;;;;;;;;;;;;;;;;5104308;28;4967;-58
2023/08/18 00:31:18;;;;;;;;;;;;;;;;;;5108874;28;5065;-58
2023/08/18 00:33:44;;;;;;;;;;;;;;;;;;5102295;28;5113;-58
2023/08/18 00:36:09;;;;;;;;;;;;;;;;;;5105807;28;4671;-60
2023/08/18 00:38:34;;;;;;;;;;;;;;;;;;5100994;28;1337;-60
2023/08/18 00:40:59;;;;;;;;;;;;;;;;;;5096741;28;5078;-59
2023/08/18 00:43:25;;;;;;;;;;;;;;;;;;5100079;28;4493;-60
2023/08/18 00:45:50;;;;;;;;;;;;;;;;;;5104306;28;5007;-60
2023/08/18 00:48:15;;;;;;;;;;;;;;;;;;5102174;28;5315;-58
2023/08/18 00:50:41;;;;;;;;;;;;;;;;;;5083478;28;5138;-58
2023/08/18 00:53:06;;;;;;;;;;;;;;;;;;5101182;28;1387;-59
2023/08/18 00:55:31;;;;;;;;;;;;;;;;;;5100370;28;5017;-58
2023/08/18 00:57:56;;;;;;;;;;;;;;;;;;5098070;28;4998;-58
2023/08/18 01:00:25;;;;;;;;;;;;;;;;;;5119892;27;5001;-58
2023/08/18 01:02:50;;;;;;;;;;;;;;;;;;5097441;28;4512;-58
2023/08/18 01:05:16;;;;;;;;;;;;;;;;;;5104945;28;1188;-58
2023/08/18 01:07:41;;;;;;;;;;;;;;;;;;5092205;28;5076;-58
2023/08/18 01:10:06;;;;;;;;;;;;;;;;;;5095144;28;4434;-59
2023/08/18 01:12:36;;;;;;;;;;;;;;;;;;5103113;28;5069;-59
2023/08/18 01:15:07;;;;;;;;;;;;;;;;;;5077572;28;4985;-58
2023/08/18 01:17:36;;;;;;;;;;;;;;;;;;5090494;28;5013;-58
2023/08/18 01:20:02;;;;;;;;;;;;;;;;;;5092923;28;5603;-59
2023/08/18 01:22:27;;;;;;;;;;;;;;;;;;5057090;28;5391;-58
2023/08/18 01:24:59;;;;;;;;;;;;;;;;;;5102871;28;4984;-57
2023/08/18 01:27:25;;;;;;;;;;;;;;;;;;5104238;28;5167;-59
2023/08/18 01:29:50;;;;;;;;;;;;;;;;;;5101289;28;5067;-58
2023/08/18 01:32:15;;;;;;;;;;;;;;;;;;5083454;28;1238;-60
2023/08/18 01:34:40;;;;;;;;;;;;;;;;;;5107901;28;5132;-60
2023/08/18 01:37:06;;;;;;;;;;;;;;;;;;5072127;28;5139;-58
2023/08/18 01:39:31;;;;;;;;;;;;;;;;;;5100880;28;5054;-58
2023/08/18 01:41:56;;;;;;;;;;;;;;;;;;5099664;28;4847;-58
2023/08/18 01:44:21;;;;;;;;;;;;;;;;;;5089980;28;1108;-58
2023/08/18 01:46:47;;;;;;;;;;;;;;;;;;5090859;28;5024;-58
2023/08/18 01:49:12;;;;;;;;;;;;;;;;;;5099579;28;5015;-59
2023/08/18 01:51:38;;;;;;;;;;;;;;;;;;5080217;28;5049;-58
2023/08/18 01:54:03;;;;;;;;;;;;;;;;;;5099706;28;5133;-57
2023/08/18 01:56:30;;;;;;;;;;;;;;;;;;5099265;28;1052;-61
2023/08/18 01:58:55;;;;;;;;;;;;;;;;;;5097888;28;5009;-58
2023/08/18 02:01:20;;;;;;;;;;;;;;;;;;5096204;28;4641;-60
2023/08/18 02:03:45;;;;;;;;;;;;;;;;;;5097031;28;5052;-60
2023/08/18 02:06:11;;;;;;;;;;;;;;;;;;5100306;28;4943;-60
2023/08/18 02:08:36;;;;;;;;;;;;;;;;;;5101999;28;2025;-59
2023/08/18 02:11:04;;;;;;;;;;;;;;;;;;5076242;28;4946;-60
2023/08/18 02:13:30;;;;;;;;;;;;;;;;;;5097180;28;4914;-59
2023/08/18 02:15:55;;;;;;;;;;;;;;;;;;5101634;28;5042;-59
2023/08/18 02:18:21;;;;;;;;;;;;;;;;;;5068202;28;5142;-60
2023/08/18 02:20:46;;;;;;;;;;;;;;;;;;5095153;28;4534;-59
2023/08/18 02:23:11;;;;;;;;;;;;;;;;;;5097488;28;1143;-60
2023/08/18 02:25:36;;;;;;;;;;;;;;;;;;5097092;28;5031;-61
2023/08/18 02:28:02;;;;;;;;;;;;;;;;;;5072393;28;5094;-60
2023/08/18 02:30:27;;;;;;;;;;;;;;;;;;5102683;28;5029;-59
2023/08/18 02:32:52;;;;;;;;;;;;;;;;;;5093298;28;5031;-59
2023/08/18 02:35:18;;;;;;;;;;;;;;;;;;5101156;28;1293;-60
2023/08/18 02:37:43;;;;;;;;;;;;;;;;;;5103105;28;4846;-59
2023/08/18 02:40:08;;;;;;;;;;;;;;;;;;5098805;28;5236;-59
2023/08/18 02:42:35;;;;;;;;;;;;;;;;;;5100519;28;5018;-59
2023/08/18 02:45:00;;;;;;;;;;;;;;;;;;5095593;28;5035;-59
2023/08/18 02:47:26;;;;;;;;;;;;;;;;;;5089777;28;1910;-60
2023/08/18 02:49:51;;;;;;;;;;;;;;;;;;5094982;28;5052;-59
2023/08/18 02:52:17;;;;;;;;;;;;;;;;;;5082327;28;5136;-60
2023/08/18 02:54:42;;;;;;;;;;;;;;;;;;5081169;28;4441;-60
2023/08/18 02:57:07;;;;;;;;;;;;;;;;;;5099431;28;4483;-60
2023/08/18 02:59:32;;;;;;;;;;;;;;;;;;5098662;28;1249;-60
2023/08/18 03:01:58;;;;;;;;;;;;;;;;;;5097318;28;4989;-60
2023/08/18 03:04:23;;;;;;;;;;;;;;;;;;5095883;28;4910;-58
2023/08/18 03:06:49;;;;;;;;;;;;;;;;;;5097286;28;4968;-59
2023/08/18 03:09:14;;;;;;;;;;;;;;;;;;5090992;28;5296;-64
2023/08/18 03:11:39;;;;;;;;;;;;;;;;;;5091139;28;5159;-60
2023/08/18 03:14:05;;;;;;;;;;;;;;;;;;5091086;28;1139;-60
2023/08/18 03:16:30;;;;;;;;;;;;;;;;;;5086793;28;5527;-60
2023/08/18 03:18:55;;;;;;;;;;;;;;;;;;5090649;28;5239;-59
2023/08/18 03:21:20;;;;;;;;;;;;;;;;;;5094927;28;5014;-60
2023/08/18 03:23:46;;;;;;;;;;;;;;;;;;5095402;28;5200;-59
2023/08/18 03:26:11;;;;;;;;;;;;;;;;;;5105462;28;1131;-58
2023/08/18 03:28:37;;;;;;;;;;;;;;;;;;5095708;28;5326;-59
2023/08/18 03:31:03;;;;;;;;;;;;;;;;;;5101486;28;4432;-60
2023/08/18 03:33:28;;;;;;;;;;;;;;;;;;5106935;28;4944;-60
2023/08/18 03:35:54;;;;;;;;;;;;;;;;;;5107625;28;4985;-60
2023/08/18 03:38:19;;;;;;;;;;;;;;;;;;5105443;28;1269;-63
2023/08/18 03:40:44;;;;;;;;;;;;;;;;;;5104164;28;5062;-60
2023/08/18 03:43:10;;;;;;;;;;;;;;;;;;5095879;28;4855;-60
2023/08/18 03:45:35;;;;;;;;;;;;;;;;;;5106616;28;4966;-60
2023/08/18 03:48:00;;;;;;;;;;;;;;;;;;5095018;28;4991;-60
2023/08/18 03:50:25;;;;;;;;;;;;;;;;;;5104228;28;2786;-59
2023/08/18 03:52:51;;;;;;;;;;;;;;;;;;5094264;28;4387;-60
2023/08/18 03:55:17;;;;;;;;;;;;;;;;;;5102834;28;5030;-59
2023/08/18 03:57:42;;;;;;;;;;;;;;;;;;5093301;28;5041;-59
2023/08/18 04:00:09;;;;;;;;;;;;;;;;;;5098647;28;4993;-59
2023/08/18 04:02:34;;;;;;;;;;;;;;;;;;5103741;28;1265;-60
2023/08/18 04:05:00;;;;;;;;;;;;;;;;;;5098734;28;4879;-59
2023/08/18 04:07:25;;;;;;;;;;;;;;;;;;5102121;28;5106;-59
2023/08/18 04:09:50;;;;;;;;;;;;;;;;;;5100675;28;5109;-59
2023/08/18 04:12:15;;;;;;;;;;;;;;;;;;5098891;28;4952;-60
2023/08/18 04:14:41;;;;;;;;;;;;;;;;;;5092177;28;5139;-59
2023/08/18 04:17:06;;;;;;;;;;;;;;;;;;5070103;28;5007;-60
2023/08/18 04:19:31;;;;;;;;;;;;;;;;;;5097136;28;4901;-60
2023/08/18 04:21:56;;;;;;;;;;;;;;;;;;5090295;28;5001;-60
2023/08/18 04:24:22;;;;;;;;;;;;;;;;;;5101477;28;5292;-59
2023/08/18 04:26:47;;;;;;;;;;;;;;;;;;5095757;28;4440;-60
2023/08/18 04:29:12;;;;;;;;;;;;;;;;;;5101787;28;1257;-60
2023/08/18 04:31:37;;;;;;;;;;;;;;;;;;5102641;28;4938;-60
2023/08/18 04:34:03;;;;;;;;;;;;;;;;;;5099079;28;4918;-59
2023/08/18 04:36:28;;;;;;;;;;;;;;;;;;5105321;28;5234;-59
2023/08/18 04:38:53;;;;;;;;;;;;;;;;;;5093192;28;5027;-59
2023/08/18 04:41:19;;;;;;;;;;;;;;;;;;5076465;28;1168;-60
2023/08/18 04:43:44;;;;;;;;;;;;;;;;;;5099278;28;5097;-60
2023/08/18 04:46:09;;;;;;;;;;;;;;;;;;5102013;28;4834;-59
2023/08/18 04:48:34;;;;;;;;;;;;;;;;;;5093087;28;4485;-60
2023/08/18 04:51:00;;;;;;;;;;;;;;;;;;5100250;28;4469;-60
2023/08/18 04:53:25;;;;;;;;;;;;;;;;;;5094577;28;1181;-60
2023/08/18 04:55:50;;;;;;;;;;;;;;;;;;5079705;28;5000;-60
2023/08/18 04:58:16;;;;;;;;;;;;;;;;;;5097146;28;4525;-60
2023/08/18 05:00:41;;;;;;;;;;;;;;;;;;5104492;28;5051;-60
2023/08/18 05:03:06;;;;;;;;;;;;;;;;;;5095910;28;5036;-59
2023/08/18 05:05:37;;;;;;;;;;;;;;;;;;5099908;28;2271;-53
2023/08/18 05:08:02;;;;;;;;;;;;;;;;;;5087650;28;5000;-54
2023/08/18 05:10:27;;;;;;;;;;;;;;;;;;5086604;28;4942;-50
2023/08/18 05:12:53;;;;;;;;;;;;;;;;;;5095723;28;4416;-53
2023/08/18 05:15:18;;;;;;;;;;;;;;;;;;5089723;28;4864;-53
2023/08/18 05:17:43;;;;;;;;;;;;;;;;;;5071774;28;5209;-51
2023/08/18 05:20:11;;;;;;;;;;;;;;;;;;5096155;28;3318;-52
2023/08/18 05:22:36;;;;;;;;;;;;;;;;;;5084264;28;4580;-51
2023/08/18 05:25:01;;;;;;;;;;;;;;;;;;5089060;28;4436;-50
2023/08/18 05:27:27;;;;;;;;;;;;;;;;;;5095191;28;4444;-51
2023/08/18 05:29:52;;;;;;;;;;;;;;;;;;5086435;28;4984;-50
2023/08/18 05:32:17;;;;;;;;;;;;;;;;;;5071271;28;3531;-51
2023/08/18 05:34:42;;;;;;;;;;;;;;;;;;5084174;28;5021;-53
2023/08/18 05:37:08;;;;;;;;;;;;;;;;;;5084082;28;4495;-52
2023/08/18 05:39:33;;;;;;;;;;;;;;;;;;5093348;28;5051;-57
2023/08/18 05:41:58;;;;;;;;;;;;;;;;;;5086387;28;4630;-61
2023/08/18 05:44:23;;;;;;;;;;;;;;;;;;5099395;28;2328;-61
2023/08/18 05:46:49;;;;;;;;;;;;;;;;;;5088597;28;5036;-55
2023/08/18 05:49:14;;;;;;;;;;;;;;;;;;5080453;28;4867;-54
2023/08/18 05:51:42;;;;;;;;;;;;;;;;;;5080926;28;5079;-55
2023/08/18 05:54:08;;;;;;;;;;;;;;;;;;5103417;28;5208;-56
2023/08/18 05:56:33;;;;;;;;;;;;;;;;;;5096990;28;1092;-55
2023/08/18 05:58:59;;;;;;;;;;;;;;;;;;5101569;28;5027;-56
2023/08/18 06:01:25;;;;;;;;;;;;;;;;;;5101807;28;4682;-53
2023/08/18 06:03:50;;;;;;;;;;;;;;;;;;5093085;28;4840;-56
2023/08/18 06:06:15;;;;;;;;;;;;;;;;;;5104009;28;5225;-55
2023/08/18 06:08:41;;;;;;;;;;;;;;;;;;5098076;28;5057;-55
2023/08/18 06:11:06;;;;;;;;;;;;;;;;;;5101273;28;1454;-55
2023/08/18 06:13:32;;;;;;;;;;;;;;;;;;5095665;28;4978;-56
2023/08/18 06:15:57;;;;;;;;;;;;;;;;;;5081255;28;5402;-55
2023/08/18 06:18:22;;;;;;;;;;;;;;;;;;5090012;28;5097;-56
2023/08/18 06:20:47;;;;;;;;;;;;;;;;;;5105116;28;5161;-56
2023/08/18 06:23:12;;;;;;;;;;;;;;;;;;5099531;28;1332;-55
2023/08/18 06:25:38;;;;;;;;;;;;;;;;;;5096158;28;4970;-55
2023/08/18 06:28:05;;;;;;;;;;;;;;;;;;5100736;28;4451;-55
2023/08/18 06:30:30;;;;;;;;;;;;;;;;;;5101676;28;5923;-56
2023/08/18 06:32:55;;;;;;;;;;;;;;;;;;5098020;28;4875;-56
2023/08/18 06:35:20;;;;;;;;;;;;;;;;;;5100251;28;1111;-56
2023/08/18 06:37:45;;;;;;;;;;;;;;;;;;5103156;28;4913;-55
2023/08/18 06:40:11;;;;;;;;;;;;;;;;;;5096726;28;4945;-56
2023/08/18 06:42:36;;;;;;;;;;;;;;;;;;5103935;28;4410;-55
2023/08/18 06:45:03;;;;;;;;;;;;;;;;;;5095409;28;4844;-57
2023/08/18 06:47:28;;;;;;;;;;;;;;;;;;5082780;28;2009;-55
2023/08/18 06:49:54;;;;;;;;;;;;;;;;;;5092610;28;4876;-56
2023/08/18 06:52:19;;;;;;;;;;;;;;;;;;5099764;28;5239;-53
2023/08/18 06:54:45;;;;;;;;;;;;;;;;;;5072591;28;5117;-55
2023/08/18 06:57:10;;;;;;;;;;;;;;;;;;5097984;28;5031;-56
2023/08/18 06:59:36;;;;;;;;;;;;;;;;;;5093116;28;1365;-56
2023/08/18 07:02:01;;;;;;;;;;;;;;;;;;5098414;28;4782;-55
2023/08/18 07:04:26;;;;;;;;;;;;;;;;;;5099016;28;5328;-55
2023/08/18 07:06:52;;;;;;;;;;;;;;;;;;5085756;28;5008;-56
2023/08/18 07:09:17;;;;;;;;;;;;;;;;;;5068405;28;5048;-56
2023/08/18 07:11:42;;;;;;;;;;;;;;;;;;5078116;28;4933;-55
2023/08/18 07:14:07;;;;;;;;;;;;;;;;;;5074966;28;1134;-56
2023/08/18 07:16:33;;;;;;;;;;;;;;;;;;5074957;28;4980;-56
2023/08/18 07:18:58;;;;;;;;;;;;;;;;;;5075364;28;5241;-55
2023/08/18 07:21:23;;;;;;;;;;;;;;;;;;5081599;28;5115;-56
2023/08/18 07:23:49;;;;;;;;;;;;;;;;;;5078170;28;5206;-55
2023/08/18 07:26:16;;;;;;;;;;;;;;;;;;5085204;28;1293;-54
2023/08/18 07:28:41;;;;;;;;;;;;;;;;;;5087327;28;5152;-54
2023/08/18 07:31:07;;;;;;;;;;;;;;;;;;5076147;28;4797;-57
2023/08/18 07:33:33;;;;;;;;;;;;;;;;;;5076794;28;5026;-55
2023/08/18 07:35:58;;;;;;;;;;;;;;;;;;5069720;28;5107;-54
2023/08/18 07:38:23;;;;;;;;;;;;;;;;;;5078850;28;3596;-54
2023/08/18 07:40:49;;;;;;;;;;;;;;;;;;5065917;28;4965;-53
2023/08/18 07:43:14;;;;;;;;;;;;;;;;;;5070031;28;5101;-55
2023/08/18 07:45:39;;;;;;;;;;;;;;;;;;5076699;28;5061;-54
2023/08/18 07:48:04;;;;;;;;;;;;;;;;;;5080500;28;4891;-55
2023/08/18 07:50:30;;;;;;;;;;;;;;;;;;5074244;28;1171;-51
2023/08/18 07:52:55;;;;;;;;;;;;;;;;;;5065408;28;4488;-54
2023/08/18 07:55:21;;;;;;;;;;;;;;;;;;5080797;28;4462;-55
2023/08/18 07:57:47;;;;;;;;;;;;;;;;;;5071906;28;4423;-55
2023/08/18 08:00:17;;;;;;;;;;;;;;;;;;5069282;28;4816;-55
2023/08/18 08:02:43;;;;;;;;;;;;;;;;;;5075522;28;5483;-55
2023/08/18 08:05:08;;;;;;;;;;;;;;;;;;5065961;28;1092;-54
2023/08/18 08:07:33;;;;;;;;;;;;;;;;;;5069098;28;4963;-55
2023/08/18 08:10:03;;;;;;;;;;;;;;;;;;5059770;28;5078;-54
2023/08/18 08:12:32;;;;;;;;;;;;;;;;;;5068944;28;5053;-55
2023/08/18 08:14:57;;;;;;;;;;;;;;;;;;5048561;28;5811;-63
2023/08/18 08:17:23;;;;;;;;;;;;;;;;;;5065725;28;4877;-64
2023/08/18 08:19:49;;;;;;;;;;;;;;;;;;5067867;28;4970;-60
2023/08/18 08:22:16;;;;;;;;;;;;;;;;;;5065492;28;4432;-63
2023/08/18 08:24:41;;;;;;;;;;;;;;;;;;5061888;28;4439;-57
2023/08/18 08:27:07;;;;;;;;;;;;;;;;;;5074030;28;5096;-57
2023/08/18 08:29:32;;;;;;;;;;;;;;;;;;5068239;28;1140;-64
2023/08/18 08:31:57;;;;;;;;;;;;;;;;;;5062790;28;4848;-62
2023/08/18 08:34:22;;;;;;;;;;;;;;;;;;5068777;28;4959;-65
2023/08/18 08:36:48;;;;;;;;;;;;;;;;;;5068023;28;5066;-58
2023/08/18 08:39:13;;;;;;;;;;;;;;;;;;5061364;28;5069;-58
2023/08/18 08:41:38;;;;;;;;;;;;;;;;;;5062762;28;4808;-60
2023/08/18 08:44:03;;;;;;;;;;;;;;;;;;5073602;28;1178;-63
2023/08/18 08:46:29;;;;;;;;;;;;;;;;;;5069038;28;5050;-65
2023/08/18 08:48:54;;;;;;;;;;;;;;;;;;5066049;28;5090;-62
2023/08/18 08:51:19;;;;;;;;;;;;;;;;;;5046831;28;5096;-59
2023/08/18 08:53:48;;;;;;;;;;;;;;;;;;5059635;28;4978;-60
2023/08/18 08:56:13;;;;;;;;;;;;;;;;;;5068458;28;1155;-64
2023/08/18 08:58:39;;;;;;;;;;;;;;;;;;5065541;28;5031;-63
2023/08/18 09:01:06;;;;;;;;;;;;;;;;;;5065249;28;4969;-60
2023/08/18 09:03:32;;;;;;;;;;;;;;;;;;5064320;28;4882;-62
2023/08/18 09:05:57;;;;;;;;;;;;;;;;;;5048805;28;4630;-56
2023/08/18 09:08:23;;;;;;;;;;;;;;;;;;5058821;28;1984;-53
2023/08/18 09:10:48;;;;;;;;;;;;;;;;;;5065073;28;5082;-58
2023/08/18 09:13:13;;;;;;;;;;;;;;;;;;5066997;28;5024;-64
2023/08/18 09:15:44;;;;;;;;;;;;;;;;;;5058138;28;5088;-62
2023/08/18 09:18:10;;;;;;;;;;;;;;;;;;5058610;28;5310;-60
2023/08/18 09:20:36;;;;;;;;;;;;;;;;;;5061060;28;3178;-59
2023/08/18 09:23:01;;;;;;;;;;;;;;;;;;5055452;28;5125;-61
2023/08/18 09:25:26;;;;;;;;;;;;;;;;;;5065239;28;4567;-58
2023/08/18 09:27:52;;;;;;;;;;;;;;;;;;5058720;28;4526;-61
2023/08/18 09:30:17;;;;;;;;;;;;;;;;;;5066037;28;4879;-60
2023/08/18 09:32:42;;;;;;;;;;;;;;;;;;5059575;28;4964;-60
2023/08/18 09:35:11;;;;;;;;;;;;;;;;;;5053618;28;3175;-59
2023/08/18 09:37:36;;;;;;;;;;;;;;;;;;5055502;28;5050;-61
2023/08/18 09:40:02;;;;;;;;;;;;;;;;;;5066424;28;5475;-60
2023/08/18 09:42:27;;;;;;;;;;;;;;;;;;5066780;28;4399;-60
2023/08/18 09:44:53;;;;;;;;;;;;;;;;;;5064308;28;5015;-61
2023/08/18 09:47:18;;;;;;;;;;;;;;;;;;5062535;28;1969;-59
2023/08/18 09:49:43;;;;;;;;;;;;;;;;;;5059746;28;4489;-61
2023/08/18 09:52:08;;;;;;;;;;;;;;;;;;5036082;28;5160;-62
2023/08/18 09:54:49;;;;;;;;;;;;;;;;;;5061411;28;5326;-59
2023/08/18 09:57:35;;;;;;;;;;;;;;;;;;5048967;28;5076;-59
2023/08/18 10:00:00;;;;;;;;;;;;;;;;;;5062881;28;5084;-59
2023/08/18 10:02:27;;;;;;;;;;;;;;;;;;5057836;28;3170;-59
2023/08/18 10:04:53;;;;;;;;;;;;;;;;;;5065929;28;5021;-58
2023/08/18 10:07:18;;;;;;;;;;;;;;;;;;5066806;28;4982;-59
2023/08/18 10:09:44;;;;;;;;;;;;;;;;;;5063193;28;4974;-60
2023/08/18 10:12:09;;;;;;;;;;;;;;;;;;5069483;28;5240;-59
2023/08/18 10:14:34;;;;;;;;;;;;;;;;;;5057768;28;1333;-59
2023/08/18 10:17:00;;;;;;;;;;;;;;;;;;5061143;28;5244;-59
2023/08/18 10:19:44;;;;;;;;;;;;;;;;;;5063105;28;4663;-58
2023/08/18 10:22:09;;;;;;;;;;;;;;;;;;5059839;28;4988;-61
2023/08/18 10:24:38;;;;;;;;;;;;;;;;;;5062789;28;4873;-59
2023/08/18 10:27:06;;;;;;;;;;;;;;;;;;5068140;28;4704;-59
2023/08/18 10:29:31;;;;;;;;;;;;;;;;;;5040193;28;1287;-60
2023/08/18 10:31:58;;;;;;;;;;;;;;;;;;5048502;28;4945;-60
2023/08/18 10:34:23;;;;;;;;;;;;;;;;;;5064875;28;5465;-60
2023/08/18 10:36:58;;;;;;;;;;;;;;;;;;5060970;28;4575;-60
2023/08/18 10:39:24;;;;;;;;;;;;;;;;;;5060628;28;5019;-59
2023/08/18 10:42:05;;;;;;;;;;;;;;;;;;5066102;28;4853;-60
2023/08/18 10:44:31;;;;;;;;;;;;;;;;;;5061590;28;1643;-60
2023/08/18 10:46:56;;;;;;;;;;;;;;;;;;5060216;28;5343;-61
2023/08/18 10:49:21;;;;;;;;;;;;;;;;;;5063705;28;4929;-60
2023/08/18 10:51:48;;;;;;;;;;;;;;;;;;5047685;28;5150;-60
2023/08/18 10:54:14;;;;;;;;;;;;;;;;;;5064143;28;4694;-60
2023/08/18 10:56:39;;;;;;;;;;;;;;;;;;5059652;28;5082;-60
2023/08/18 10:59:04;;;;;;;;;;;;;;;;;;5039479;28;1299;-60
2023/08/18 11:01:29;;;;;;;;;;;;;;;;;;5064636;28;5411;-60
2023/08/18 11:03:55;;;;;;;;;;;;;;;;;;5066158;28;4855;-61
2023/08/18 11:06:20;;;;;;;;;;;;;;;;;;5056525;28;5153;-60
2023/08/18 11:08:45;;;;;;;;;;;;;;;;;;5061351;28;5140;-60
2023/08/18 11:11:11;;;;;;;;;;;;;;;;;;5058533;28;3253;-54
2023/08/18 11:13:36;;;;;;;;;;;;;;;;;;5055927;28;5553;-55
2023/08/18 11:16:02;;;;;;;;;;;;;;;;;;5040917;28;4697;-54
2023/08/18 11:18:27;;;;;;;;;;;;;;;;;;5062976;28;5044;-54
2023/08/18 11:20:52;;;;;;;;;;;;;;;;;;5062157;28;5480;-55
2023/08/18 11:23:18;;;;;;;;;;;;;;;;;;5056753;28;3183;-54
2023/08/18 11:25:44;;;;;;;;;;;;;;;;;;5059260;28;4643;-54
2023/08/18 11:28:09;;;;;;;;;;;;;;;;;;5065045;28;4995;-56
2023/08/18 11:30:34;;;;;;;;;;;;;;;;;;5063128;28;4461;-54
2023/08/18 11:33:00;;;;;;;;;;;;;;;;;;5059542;28;5146;-55
2023/08/18 11:35:25;;;;;;;;;;;;;;;;;;5062873;28;3467;-59
2023/08/18 11:37:52;;;;;;;;;;;;;;;;;;5036258;28;4676;-59
2023/08/18 11:40:18;;;;;;;;;;;;;;;;;;5064447;28;4943;-59
2023/08/18 11:42:47;;;;;;;;;;;;;;;;;;5051520;28;4553;-58
2023/08/18 11:45:15;;;;;;;;;;;;;;;;;;5061260;28;5018;-59
2023/08/18 11:48:01;;;;;;;;;;;;;;;;;;5061732;28;4522;-58
2023/08/18 11:50:29;;;;;;;;;;;;;;;;;;5064653;28;3226;-57
2023/08/18 11:52:55;;;;;;;;;;;;;;;;;;5061478;28;4394;-61
2023/08/18 11:55:33;;;;;;;;;;;;;;;;;;5066387;28;5005;-60
2023/08/18 11:57:58;;;;;;;;;;;;;;;;;;5069685;28;5028;-57
2023/08/18 12:00:50;;;;;;;;;;;;;;;;;;5059885;28;5008;-58
2023/08/18 12:03:33;;;;;;;;;;;;;;;;;;5059937;28;4683;-59
2023/08/18 12:05:59;;;;;;;;;;;;;;;;;;5059155;28;4504;-59
2023/08/18 12:08:25;;;;;;;;;;;;;;;;;;5057927;28;3253;-57
2023/08/18 12:10:52;;;;;;;;;;;;;;;;;;5064828;28;5062;-59
2023/08/18 12:13:17;;;;;;;;;;;;;;;;;;5069507;28;5148;-57
2023/08/18 12:15:42;;;;;;;;;;;;;;;;;;5033902;28;5126;-58
2023/08/18 12:18:07;;;;;;;;;;;;;;;;;;5063620;28;5074;-59
2023/08/18 12:20:33;;;;;;;;;;;;;;;;;;5065461;28;3182;-58
2023/08/18 12:22:58;;;;;;;;;;;;;;;;;;5060401;28;4398;-57
2023/08/18 12:25:24;;;;;;;;;;;;;;;;;;5066116;28;4990;-61
2023/08/18 12:27:49;;;;;;;;;;;;;;;;;;5068433;28;5066;-59
2023/08/18 12:30:15;;;;;;;;;;;;;;;;;;5059252;28;5106;-57
2023/08/18 12:32:41;;;;;;;;;;;;;;;;;;5062931;28;5011;-59
2023/08/18 12:35:07;;;;;;;;;;;;;;;;;;5061368;28;1393;-58
2023/08/18 12:37:32;;;;;;;;;;;;;;;;;;5063564;28;5022;-60
2023/08/18 12:39:58;;;;;;;;;;;;;;;;;;5059455;28;4730;-59
2023/08/18 12:42:23;;;;;;;;;;;;;;;;;;5058467;28;5019;-59
2023/08/18 12:44:49;;;;;;;;;;;;;;;;;;5057832;28;4458;-59
2023/08/18 12:47:14;;;;;;;;;;;;;;;;;;5062708;28;1992;-59
2023/08/18 12:49:39;;;;;;;;;;;;;;;;;;5061383;28;4916;-60
2023/08/18 12:52:05;;;;;;;;;;;;;;;;;;5056805;28;4984;-58
2023/08/18 12:54:30;;;;;;;;;;;;;;;;;;5063320;28;4421;-59
2023/08/18 12:56:55;;;;;;;;;;;;;;;;;;5062357;28;4989;-59
2023/08/18 12:59:21;;;;;;;;;;;;;;;;;;5045401;28;1391;-59
2023/08/18 13:01:47;;;;;;;;;;;;;;;;;;5048318;28;5078;-60
2023/08/18 13:04:12;;;;;;;;;;;;;;;;;;5068470;28;5037;-59
2023/08/18 13:06:37;;;;;;;;;;;;;;;;;;5064286;28;4970;-53
2023/08/18 13:09:02;;;;;;;;;;;;;;;;;;5064576;28;5118;-57
2023/08/18 13:11:28;;;;;;;;;;;;;;;;;;5062500;28;3422;-57
2023/08/18 13:13:53;;;;;;;;;;;;;;;;;;5067927;28;4934;-56
2023/08/18 13:16:18;;;;;;;;;;;;;;;;;;5062759;28;4942;-56
2023/08/18 13:18:43;;;;;;;;;;;;;;;;;;5064555;28;4874;-57
2023/08/18 13:21:09;;;;;;;;;;;;;;;;;;5058263;28;5028;-56
2023/08/18 13:23:34;;;;;;;;;;;;;;;;;;5068229;28;1326;-57
2023/08/18 13:25:59;;;;;;;;;;;;;;;;;;5061933;28;4878;-55
2023/08/18 13:28:24;;;;;;;;;;;;;;;;;;5050963;28;5042;-62
2023/08/18 13:30:50;;;;;;;;;;;;;;;;;;5065272;28;4649;-62
2023/08/18 13:33:15;;;;;;;;;;;;;;;;;;5056820;28;5040;-61
2023/08/18 13:35:40;;;;;;;;;;;;;;;;;;5069104;28;5104;-62
2023/08/18 13:38:05;;;;;;;;;;;;;;;;;;5059944;28;1351;-62
2023/08/18 13:40:31;;;;;;;;;;;;;;;;;;5046526;28;4670;-62
2023/08/18 13:42:56;;;;;;;;;;;;;;;;;;5065417;28;4473;-63
2023/08/18 13:45:21;;;;;;;;;;;;;;;;;;5065109;28;4857;-62
2023/08/18 13:47:47;;;;;;;;;;;;;;;;;;5057399;28;5330;-63
2023/08/18 13:50:12;;;;;;;;;;;;;;;;;;5067513;28;1084;-61
2023/08/18 13:52:37;;;;;;;;;;;;;;;;;;5066346;28;5042;-60
2023/08/18 13:55:03;;;;;;;;;;;;;;;;;;5066151;28;5035;-57
2023/08/18 13:57:28;;;;;;;;;;;;;;;;;;5059541;28;5312;-58
2023/08/18 13:59:53;;;;;;;;;;;;;;;;;;5065410;28;5133;-58
2023/08/18 14:02:18;;;;;;;;;;;;;;;;;;5057703;28;3241;-58
2023/08/18 14:04:44;;;;;;;;;;;;;;;;;;5061298;28;4670;-59
2023/08/18 14:07:10;;;;;;;;;;;;;;;;;;5065036;28;4904;-57
2023/08/18 14:09:35;;;;;;;;;;;;;;;;;;5056183;28;5135;-58
2023/08/18 14:12:01;;;;;;;;;;;;;;;;;;5056799;28;5017;-58
2023/08/18 14:14:26;;;;;;;;;;;;;;;;;;5062126;28;3229;-57
2023/08/18 14:16:51;;;;;;;;;;;;;;;;;;5053981;28;5162;-57
2023/08/18 14:19:17;;;;;;;;;;;;;;;;;;5062327;28;5140;-58
2023/08/18 14:21:44;;;;;;;;;;;;;;;;;;5055941;28;4531;-58
2023/08/18 14:24:10;;;;;;;;;;;;;;;;;;5058030;28;4913;-58
2023/08/18 14:26:35;;;;;;;;;;;;;;;;;;5060385;28;3266;-64
2023/08/18 14:29:00;;;;;;;;;;;;;;;;;;5063307;28;4935;-59
2023/08/18 14:31:25;;;;;;;;;;;;;;;;;;5060320;28;5089;-59
2023/08/18 14:33:51;;;;;;;;;;;;;;;;;;5063552;28;4957;-59
2023/08/18 14:36:16;;;;;;;;;;;;;;;;;;5061551;28;5092;-58
2023/08/18 14:38:42;;;;;;;;;;;;;;;;;;5068648;28;5188;-59
2023/08/18 14:41:07;;;;;;;;;;;;;;;;;;5056789;28;3277;-59
2023/08/18 14:43:32;;;;;;;;;;;;;;;;;;5059046;28;4477;-66
2023/08/18 14:45:58;;;;;;;;;;;;;;;;;;5060262;28;5186;-69
2023/08/18 14:48:23;;;;;;;;;;;;;;;;;;5041576;28;5054;-60
2023/08/18 14:50:49;;;;;;;;;;;;;;;;;;5057727;28;4688;-72
2023/08/18 14:53:14;;;;;;;;;;;;;;;;;;5063221;28;3050;-70
2023/08/18 14:55:39;;;;;;;;;;;;;;;;;;5045410;28;4630;-70
2023/08/18 14:58:05;;;;;;;;;;;;;;;;;;5049179;28;4515;-70
2023/08/18 15:00:33;;;;;;;;;;;;;;;;;;5055322;28;4914;-67
2023/08/18 15:02:59;;;;;;;;;;;;;;;;;;5061095;28;5117;-71
2023/08/18 15:05:24;;;;;;;;;;;;;;;;;;5060430;28;3713;-73
2023/08/18 15:07:50;;;;;;;;;;;;;;;;;;5039768;28;5303;-63
2023/08/18 15:10:15;;;;;;;;;;;;;;;;;;5059794;28;4978;-69
2023/08/18 15:12:40;;;;;;;;;;;;;;;;;;5058132;28;4522;-59
2023/08/18 15:15:06;;;;;;;;;;;;;;;;;;5061823;28;5916;-61
2023/08/18 15:17:31;;;;;;;;;;;;;;;;;;5042022;28;5033;-63
2023/08/18 15:19:57;;;;;;;;;;;;;;;;;;5064963;28;5050;-62
2023/08/18 15:22:22;;;;;;;;;;;;;;;;;;5054023;28;5067;-60
2023/08/18 15:24:50;;;;;;;;;;;;;;;;;;5068515;28;5009;-60
2023/08/18 15:27:16;;;;;;;;;;;;;;;;;;5068974;28;5142;-59
2023/08/18 15:29:41;;;;;;;;;;;;;;;;;;5066478;28;5150;-60
2023/08/18 15:32:06;;;;;;;;;;;;;;;;;;5061506;28;3123;-60
2023/08/18 15:34:31;;;;;;;;;;;;;;;;;;5063544;28;4697;-58
2023/08/18 15:36:59;;;;;;;;;;;;;;;;;;5061784;28;5193;-60
2023/08/18 15:39:24;;;;;;;;;;;;;;;;;;5048812;28;5025;-61
2023/08/18 15:41:49;;;;;;;;;;;;;;;;;;5066245;28;4641;-65
2023/08/18 15:44:15;;;;;;;;;;;;;;;;;;5063510;28;1237;-72
2023/08/18 15:46:40;;;;;;;;;;;;;;;;;;5067893;28;4993;-73
2023/08/18 15:49:05;;;;;;;;;;;;;;;;;;5066914;28;4478;-69
2023/08/18 15:51:30;;;;;;;;;;;;;;;;;;5069220;28;4969;-69
2023/08/18 15:53:56;;;;;;;;;;;;;;;;;;5059408;28;5048;-69
2023/08/18 15:56:21;;;;;;;;;;;;;;;;;;5069717;28;1321;-63
2023/08/18 15:58:47;;;;;;;;;;;;;;;;;;5068673;28;5403;-62
2023/08/18 16:01:14;;;;;;;;;;;;;;;;;;5067274;28;5409;-64
2023/08/18 16:03:39;;;;;;;;;;;;;;;;;;5060794;28;4507;-67
2023/08/18 16:06:05;;;;;;;;;;;;;;;;;;5067475;28;4968;-62
2023/08/18 16:08:30;;;;;;;;;;;;;;;;;;5064424;28;1977;-62
2023/08/18 16:10:57;;;;;;;;;;;;;;;;;;5056445;28;5080;-59
2023/08/18 16:13:22;;;;;;;;;;;;;;;;;;5063143;28;5101;-60
2023/08/18 16:15:48;;;;;;;;;;;;;;;;;;5062569;28;5015;-63
2023/08/18 16:18:14;;;;;;;;;;;;;;;;;;5058510;28;5315;-61
2023/08/18 16:20:39;;;;;;;;;;;;;;;;;;5063262;28;5128;-61
2023/08/18 16:23:04;;;;;;;;;;;;;;;;;;5058768;28;3514;-60
2023/08/18 16:25:30;;;;;;;;;;;;;;;;;;5056522;28;4682;-60
2023/08/18 16:27:55;;;;;;;;;;;;;;;;;;5059917;28;4731;-60
2023/08/18 16:30:20;;;;;;;;;;;;;;;;;;5059927;28;5121;-60
2023/08/18 16:32:47;;;;;;;;;;;;;;;;;;5053652;28;5084;-59
2023/08/18 16:35:12;;;;;;;;;;;;;;;;;;5064149;28;3049;-61
2023/08/18 16:37:37;;;;;;;;;;;;;;;;;;5057120;28;4425;-65
2023/08/18 16:40:02;;;;;;;;;;;;;;;;;;5064745;28;5059;-66
2023/08/18 16:42:28;;;;;;;;;;;;;;;;;;5066348;28;5095;-64
2023/08/18 16:44:54;;;;;;;;;;;;;;;;;;5066582;28;4663;-63
2023/08/18 16:47:19;;;;;;;;;;;;;;;;;;5062842;28;2165;-64
2023/08/18 16:49:44;;;;;;;;;;;;;;;;;;5064396;28;4980;-61
2023/08/18 16:52:09;;;;;;;;;;;;;;;;;;5067112;28;5228;-60
2023/08/18 16:54:35;;;;;;;;;;;;;;;;;;5065996;28;4439;-65